sensor_id;sensor_type;location;lat;lon;timestamp;temperature;humidity
16515;DHT22;8370;52.556;7.970;2022-10-16T00:01:11;12.80;99.90
16515;DHT22;8370;52.556;7.970;2022-10-16T00:03:38;12.80;99.90
16515;DHT22;8370;52.556;7.970;2022-10-16T00:06:04;12.80;99.90
16515;DHT22;8370;52.556;7.970;2022-10-16T00:08:30;12.80;99.90
16515;DHT22;8370;52.556;7.970;2022-10-16T00:11:14;12.70;99.90
16515;DHT22;8370;52.556;7.970;2022-10-16T00:13:41;12.60;99.90
16515;DHT22;8370;52.556;7.970;2022-10-16T00:16:08;12.60;99.90
16515;DHT22;8370;52.556;7.970;2022-10-16T00:18:34;12.60;99.90
16515;DHT22;8370;52.556;7.970;2022-10-16T00:21:14;12.50;99.90
16515;DHT22;8370;52.556;7.970;2022-10-16T00:23:40;12.50;99.90
16515;DHT22;8370;52.556;7.970;2022-10-16T00:26:09;12.40;99.90
16515;DHT22;8370;52.556;7.970;2022-10-16T00:28:35;12.40;99.90
16515;DHT22;8370;52.556;7.970;2022-10-16T00:31:09;12.30;99.90
16515;DHT22;8370;52.556;7.970;2022-10-16T00:33:35;12.30;99.90
16515;DHT22;8370;52.556;7.970;2022-10-16T00:36:02;12.30;99.90
16515;DHT22;8370;52.556;7.970;2022-10-16T00:38:28;12.20;99.90
16515;DHT22;8370;52.556;7.970;2022-10-16T00:40:54;12.20;99.90
16515;DHT22;8370;52.556;7.970;2022-10-16T00:43:40;12.10;99.90
16515;DHT22;8370;52.556;7.970;2022-10-16T00:48:39;12.00;99.90
16515;DHT22;8370;52.556;7.970;2022-10-16T00:51:06;12.00;99.90
16515;DHT22;8370;52.556;7.970;2022-10-16T00:53:33;12.00;99.90
16515;DHT22;8370;52.556;7.970;2022-10-16T00:55:59;11.90;99.90
16515;DHT22;8370;52.556;7.970;2022-10-16T00:58:24;12.00;99.90
16515;DHT22;8370;52.556;7.970;2022-10-16T01:00:50;11.90;99.90
16515;DHT22;8370;52.556;7.970;2022-10-16T01:03:25;11.90;99.90
16515;DHT22;8370;52.556;7.970;2022-10-16T01:06:00;11.90;99.90
16515;DHT22;8370;52.556;7.970;2022-10-16T01:09:16;11.90;99.90
16515;DHT22;8370;52.556;7.970;2022-10-16T01:11:33;11.90;99.90
16515;DHT22;8370;52.556;7.970;2022-10-16T01:14:06;11.90;99.90
16515;DHT22;8370;52.556;7.970;2022-10-16T01:16:43;11.90;99.90
16515;DHT22;8370;52.556;7.970;2022-10-16T01:19:51;11.90;99.90
16515;DHT22;8370;52.556;7.970;2022-10-16T01:22:25;12.00;99.90
16515;DHT22;8370;52.556;7.970;2022-10-16T01:24:58;12.00;99.90
16515;DHT22;8370;52.556;7.970;2022-10-16T01:27:27;12.00;99.90
16515;DHT22;8370;52.556;7.970;2022-10-16T01:30:02;11.90;99.90
16515;DHT22;8370;52.556;7.970;2022-10-16T01:32:42;12.00;99.90
16515;DHT22;8370;52.556;7.970;2022-10-16T01:38:02;12.00;99.90
16515;DHT22;8370;52.556;7.970;2022-10-16T01:40:29;12.00;99.90
16515;DHT22;8370;52.556;7.970;2022-10-16T01:43:00;12.00;99.90
16515;DHT22;8370;52.556;7.970;2022-10-16T01:45:28;12.00;99.90
16515;DHT22;8370;52.556;7.970;2022-10-16T01:47:55;12.00;99.90
16515;DHT22;8370;52.556;7.970;2022-10-16T01:50:22;12.00;99.90
16515;DHT22;8370;52.556;7.970;2022-10-16T01:52:51;12.00;99.90
16515;DHT22;8370;52.556;7.970;2022-10-16T01:55:22;12.00;99.90
16515;DHT22;8370;52.556;7.970;2022-10-16T01:57:50;11.90;99.90
16515;DHT22;8370;52.556;7.970;2022-10-16T02:00:19;11.90;99.90
16515;DHT22;8370;52.556;7.970;2022-10-16T02:02:48;11.90;99.90
16515;DHT22;8370;52.556;7.970;2022-10-16T02:05:21;11.80;99.90
16515;DHT22;8370;52.556;7.970;2022-10-16T02:07:48;11.80;99.90
16515;DHT22;8370;52.556;7.970;2022-10-16T02:10:14;11.80;99.90
16515;DHT22;8370;52.556;7.970;2022-10-16T02:13:06;11.80;99.90
16515;DHT22;8370;52.556;7.970;2022-10-16T02:15:29;11.80;99.90
16515;DHT22;8370;52.556;7.970;2022-10-16T02:17:54;11.80;99.90
16515;DHT22;8370;52.556;7.970;2022-10-16T02:20:25;11.90;99.90
16515;DHT22;8370;52.556;7.970;2022-10-16T02:22:52;11.80;99.90
16515;DHT22;8370;52.556;7.970;2022-10-16T02:25:40;11.90;99.90
16515;DHT22;8370;52.556;7.970;2022-10-16T02:28:17;11.80;99.90
16515;DHT22;8370;52.556;7.970;2022-10-16T02:30:56;11.80;99.90
16515;DHT22;8370;52.556;7.970;2022-10-16T02:33:23;11.80;99.90
16515;DHT22;8370;52.556;7.970;2022-10-16T02:35:51;11.80;99.90
16515;DHT22;8370;52.556;7.970;2022-10-16T02:38:17;11.80;99.90
16515;DHT22;8370;52.556;7.970;2022-10-16T02:40:44;11.80;99.90
16515;DHT22;8370;52.556;7.970;2022-10-16T02:43:11;11.80;99.90
16515;DHT22;8370;52.556;7.970;2022-10-16T02:45:37;11.90;99.90
16515;DHT22;8370;52.556;7.970;2022-10-16T02:48:02;11.80;99.90
16515;DHT22;8370;52.556;7.970;2022-10-16T02:50:28;11.90;99.90
16515;DHT22;8370;52.556;7.970;2022-10-16T02:52:53;11.90;99.90
16515;DHT22;8370;52.556;7.970;2022-10-16T02:55:19;11.90;99.90
16515;DHT22;8370;52.556;7.970;2022-10-16T02:57:44;11.90;99.90
16515;DHT22;8370;52.556;7.970;2022-10-16T03:00:13;11.90;99.90
16515;DHT22;8370;52.556;7.970;2022-10-16T03:02:39;12.00;99.90
16515;DHT22;8370;52.556;7.970;2022-10-16T03:05:05;12.00;99.90
16515;DHT22;8370;52.556;7.970;2022-10-16T03:07:31;12.00;99.90
16515;DHT22;8370;52.556;7.970;2022-10-16T03:09:56;12.00;99.90
16515;DHT22;8370;52.556;7.970;2022-10-16T03:12:26;12.00;99.90
16515;DHT22;8370;52.556;7.970;2022-10-16T03:14:51;12.10;99.90
16515;DHT22;8370;52.556;7.970;2022-10-16T03:17:17;12.10;99.90
16515;DHT22;8370;52.556;7.970;2022-10-16T03:19:43;12.10;99.90
16515;DHT22;8370;52.556;7.970;2022-10-16T03:22:08;12.20;99.90
16515;DHT22;8370;52.556;7.970;2022-10-16T03:24:34;12.20;99.90
16515;DHT22;8370;52.556;7.970;2022-10-16T03:26:59;12.20;99.90
16515;DHT22;8370;52.556;7.970;2022-10-16T03:29:25;12.30;99.90
16515;DHT22;8370;52.556;7.970;2022-10-16T03:31:51;12.30;99.90
16515;DHT22;8370;52.556;7.970;2022-10-16T03:34:17;12.40;99.90
16515;DHT22;8370;52.556;7.970;2022-10-16T03:36:42;12.40;99.90
16515;DHT22;8370;52.556;7.970;2022-10-16T03:39:08;12.40;99.90
16515;DHT22;8370;52.556;7.970;2022-10-16T03:41:33;12.40;99.90
16515;DHT22;8370;52.556;7.970;2022-10-16T03:43:59;12.40;99.90
16515;DHT22;8370;52.556;7.970;2022-10-16T03:46:24;12.50;99.90
16515;DHT22;8370;52.556;7.970;2022-10-16T03:48:50;12.50;99.90
16515;DHT22;8370;52.556;7.970;2022-10-16T03:51:15;12.60;99.90
16515;DHT22;8370;52.556;7.970;2022-10-16T03:53:41;12.60;99.90
16515;DHT22;8370;52.556;7.970;2022-10-16T03:56:06;12.60;99.90
16515;DHT22;8370;52.556;7.970;2022-10-16T03:58:32;12.60;99.90
16515;DHT22;8370;52.556;7.970;2022-10-16T04:00:58;12.70;99.90
16515;DHT22;8370;52.556;7.970;2022-10-16T04:03:23;12.70;99.90
16515;DHT22;8370;52.556;7.970;2022-10-16T04:05:49;12.70;99.90
16515;DHT22;8370;52.556;7.970;2022-10-16T04:08:15;12.70;99.90
16515;DHT22;8370;52.556;7.970;2022-10-16T04:10:43;12.70;99.90
16515;DHT22;8370;52.556;7.970;2022-10-16T04:13:09;12.70;99.90
16515;DHT22;8370;52.556;7.970;2022-10-16T04:15:34;12.70;99.90
16515;DHT22;8370;52.556;7.970;2022-10-16T04:18:00;12.70;99.90
16515;DHT22;8370;52.556;7.970;2022-10-16T04:20:25;12.70;99.90
16515;DHT22;8370;52.556;7.970;2022-10-16T04:22:51;12.70;99.90
16515;DHT22;8370;52.556;7.970;2022-10-16T04:25:16;12.70;99.90
16515;DHT22;8370;52.556;7.970;2022-10-16T04:27:42;12.80;99.90
16515;DHT22;8370;52.556;7.970;2022-10-16T04:30:08;12.80;99.90
16515;DHT22;8370;52.556;7.970;2022-10-16T04:32:33;12.70;99.90
16515;DHT22;8370;52.556;7.970;2022-10-16T04:34:59;12.70;99.90
16515;DHT22;8370;52.556;7.970;2022-10-16T04:37:25;12.70;99.90
16515;DHT22;8370;52.556;7.970;2022-10-16T04:39:52;12.80;99.90
16515;DHT22;8370;52.556;7.970;2022-10-16T04:42:18;12.80;99.90
16515;DHT22;8370;52.556;7.970;2022-10-16T04:44:43;12.80;99.90
16515;DHT22;8370;52.556;7.970;2022-10-16T04:47:09;12.80;99.90
16515;DHT22;8370;52.556;7.970;2022-10-16T04:49:34;12.80;99.90
16515;DHT22;8370;52.556;7.970;2022-10-16T04:52:00;12.80;99.90
16515;DHT22;8370;52.556;7.970;2022-10-16T04:54:25;12.80;99.90
16515;DHT22;8370;52.556;7.970;2022-10-16T04:56:51;12.80;99.90
16515;DHT22;8370;52.556;7.970;2022-10-16T04:59:18;12.80;99.90
16515;DHT22;8370;52.556;7.970;2022-10-16T05:01:43;12.80;99.90
16515;DHT22;8370;52.556;7.970;2022-10-16T05:04:10;12.80;99.90
16515;DHT22;8370;52.556;7.970;2022-10-16T05:06:36;12.80;99.90
16515;DHT22;8370;52.556;7.970;2022-10-16T05:09:02;12.90;99.90
16515;DHT22;8370;52.556;7.970;2022-10-16T05:11:28;12.90;99.90
16515;DHT22;8370;52.556;7.970;2022-10-16T05:13:53;12.80;99.90
16515;DHT22;8370;52.556;7.970;2022-10-16T05:16:19;12.80;99.90
16515;DHT22;8370;52.556;7.970;2022-10-16T05:18:44;12.80;99.90
16515;DHT22;8370;52.556;7.970;2022-10-16T05:21:10;12.80;99.90
16515;DHT22;8370;52.556;7.970;2022-10-16T05:23:35;12.80;99.90
16515;DHT22;8370;52.556;7.970;2022-10-16T05:26:01;12.80;99.90
16515;DHT22;8370;52.556;7.970;2022-10-16T05:28:28;12.80;99.90
16515;DHT22;8370;52.556;7.970;2022-10-16T05:30:55;12.90;99.90
16515;DHT22;8370;52.556;7.970;2022-10-16T05:33:22;12.90;99.90
16515;DHT22;8370;52.556;7.970;2022-10-16T05:35:47;12.90;99.90
16515;DHT22;8370;52.556;7.970;2022-10-16T05:38:13;12.90;99.90
16515;DHT22;8370;52.556;7.970;2022-10-16T05:40:39;12.90;99.90
16515;DHT22;8370;52.556;7.970;2022-10-16T05:43:04;12.90;99.90
16515;DHT22;8370;52.556;7.970;2022-10-16T05:45:30;12.90;99.90
16515;DHT22;8370;52.556;7.970;2022-10-16T05:47:55;12.80;99.90
16515;DHT22;8370;52.556;7.970;2022-10-16T05:50:21;12.80;99.90
16515;DHT22;8370;52.556;7.970;2022-10-16T05:52:47;12.80;99.90
16515;DHT22;8370;52.556;7.970;2022-10-16T05:55:12;12.80;99.90
16515;DHT22;8370;52.556;7.970;2022-10-16T05:57:38;12.80;99.90
16515;DHT22;8370;52.556;7.970;2022-10-16T06:00:04;12.80;99.90
16515;DHT22;8370;52.556;7.970;2022-10-16T06:02:30;12.80;99.90
16515;DHT22;8370;52.556;7.970;2022-10-16T06:04:56;12.80;99.90
16515;DHT22;8370;52.556;7.970;2022-10-16T06:07:22;12.80;99.90
16515;DHT22;8370;52.556;7.970;2022-10-16T06:09:49;12.90;99.90
16515;DHT22;8370;52.556;7.970;2022-10-16T06:12:15;12.80;99.90
16515;DHT22;8370;52.556;7.970;2022-10-16T06:14:41;12.80;99.90
16515;DHT22;8370;52.556;7.970;2022-10-16T06:17:06;12.80;99.90
16515;DHT22;8370;52.556;7.970;2022-10-16T06:19:32;12.80;99.90
16515;DHT22;8370;52.556;7.970;2022-10-16T06:21:57;12.90;99.90
16515;DHT22;8370;52.556;7.970;2022-10-16T06:24:24;12.80;99.90
16515;DHT22;8370;52.556;7.970;2022-10-16T06:26:49;12.90;99.90
16515;DHT22;8370;52.556;7.970;2022-10-16T06:29:15;12.90;99.90
16515;DHT22;8370;52.556;7.970;2022-10-16T06:31:41;12.90;99.90
16515;DHT22;8370;52.556;7.970;2022-10-16T06:34:09;12.90;99.90
16515;DHT22;8370;52.556;7.970;2022-10-16T06:36:36;12.90;99.90
16515;DHT22;8370;52.556;7.970;2022-10-16T06:39:02;12.90;99.90
16515;DHT22;8370;52.556;7.970;2022-10-16T06:41:27;12.90;99.90
16515;DHT22;8370;52.556;7.970;2022-10-16T06:43:53;12.90;99.90
16515;DHT22;8370;52.556;7.970;2022-10-16T06:46:21;12.90;99.90
16515;DHT22;8370;52.556;7.970;2022-10-16T06:48:47;13.00;99.90
16515;DHT22;8370;52.556;7.970;2022-10-16T06:51:15;13.00;99.90
16515;DHT22;8370;52.556;7.970;2022-10-16T06:53:46;13.00;99.90
16515;DHT22;8370;52.556;7.970;2022-10-16T06:56:22;13.00;99.90
16515;DHT22;8370;52.556;7.970;2022-10-16T06:58:48;13.10;99.90
16515;DHT22;8370;52.556;7.970;2022-10-16T07:01:15;13.00;99.90
16515;DHT22;8370;52.556;7.970;2022-10-16T07:03:42;13.00;99.90
16515;DHT22;8370;52.556;7.970;2022-10-16T07:06:09;13.10;99.90
16515;DHT22;8370;52.556;7.970;2022-10-16T07:08:39;13.10;99.90
16515;DHT22;8370;52.556;7.970;2022-10-16T07:11:11;13.10;99.90
16515;DHT22;8370;52.556;7.970;2022-10-16T07:13:37;13.10;99.90
16515;DHT22;8370;52.556;7.970;2022-10-16T07:16:07;13.20;99.90
16515;DHT22;8370;52.556;7.970;2022-10-16T07:18:33;13.30;99.90
16515;DHT22;8370;52.556;7.970;2022-10-16T07:21:13;13.30;99.90
16515;DHT22;8370;52.556;7.970;2022-10-16T07:23:39;13.50;99.90
16515;DHT22;8370;52.556;7.970;2022-10-16T07:26:06;13.50;99.90
16515;DHT22;8370;52.556;7.970;2022-10-16T07:28:32;13.60;99.90
16515;DHT22;8370;52.556;7.970;2022-10-16T07:31:18;13.70;99.90
16515;DHT22;8370;52.556;7.970;2022-10-16T07:33:45;13.80;99.90
16515;DHT22;8370;52.556;7.970;2022-10-16T07:36:14;13.90;99.90
16515;DHT22;8370;52.556;7.970;2022-10-16T07:38:39;14.10;99.90
16515;DHT22;8370;52.556;7.970;2022-10-16T07:41:07;14.30;99.90
16515;DHT22;8370;52.556;7.970;2022-10-16T07:43:33;14.40;99.90
16515;DHT22;8370;52.556;7.970;2022-10-16T07:45:59;14.50;99.90
16515;DHT22;8370;52.556;7.970;2022-10-16T07:48:27;14.60;99.90
16515;DHT22;8370;52.556;7.970;2022-10-16T07:51:00;14.70;99.90
16515;DHT22;8370;52.556;7.970;2022-10-16T07:53:27;14.80;99.90
16515;DHT22;8370;52.556;7.970;2022-10-16T07:55:57;14.90;99.90
16515;DHT22;8370;52.556;7.970;2022-10-16T07:58:23;15.00;99.90
16515;DHT22;8370;52.556;7.970;2022-10-16T08:00:48;15.10;99.90
16515;DHT22;8370;52.556;7.970;2022-10-16T08:03:14;15.20;99.90
16515;DHT22;8370;52.556;7.970;2022-10-16T08:05:39;15.20;99.90
16515;DHT22;8370;52.556;7.970;2022-10-16T08:08:05;15.20;99.90
16515;DHT22;8370;52.556;7.970;2022-10-16T08:10:31;15.20;99.90
16515;DHT22;8370;52.556;7.970;2022-10-16T08:12:57;15.20;99.90
16515;DHT22;8370;52.556;7.970;2022-10-16T08:15:22;15.20;99.90
16515;DHT22;8370;52.556;7.970;2022-10-16T08:17:58;15.30;99.90
16515;DHT22;8370;52.556;7.970;2022-10-16T08:20:24;15.50;99.90
16515;DHT22;8370;52.556;7.970;2022-10-16T08:22:50;15.50;99.90
16515;DHT22;8370;52.556;7.970;2022-10-16T08:25:15;15.60;99.90
16515;DHT22;8370;52.556;7.970;2022-10-16T08:27:41;15.60;99.90
16515;DHT22;8370;52.556;7.970;2022-10-16T08:30:08;15.60;99.90
16515;DHT22;8370;52.556;7.970;2022-10-16T08:32:33;15.60;99.90
16515;DHT22;8370;52.556;7.970;2022-10-16T08:34:59;15.60;99.90
16515;DHT22;8370;52.556;7.970;2022-10-16T08:37:24;15.50;99.90
16515;DHT22;8370;52.556;7.970;2022-10-16T08:39:50;15.40;99.90
16515;DHT22;8370;52.556;7.970;2022-10-16T08:42:52;15.30;99.90
16515;DHT22;8370;52.556;7.970;2022-10-16T08:45:38;15.30;99.90
16515;DHT22;8370;52.556;7.970;2022-10-16T08:50:45;15.20;99.90
16515;DHT22;8370;52.556;7.970;2022-10-16T08:53:20;15.30;99.90
16515;DHT22;8370;52.556;7.970;2022-10-16T08:55:52;15.50;99.90
16515;DHT22;8370;52.556;7.970;2022-10-16T08:58:20;15.50;99.90
16515;DHT22;8370;52.556;7.970;2022-10-16T09:00:49;15.60;99.90
16515;DHT22;8370;52.556;7.970;2022-10-16T09:05:52;15.70;99.90
16515;DHT22;8370;52.556;7.970;2022-10-16T09:08:37;15.70;99.90
16515;DHT22;8370;52.556;7.970;2022-10-16T09:11:15;15.70;99.90
16515;DHT22;8370;52.556;7.970;2022-10-16T09:13:58;15.90;99.90
16515;DHT22;8370;52.556;7.970;2022-10-16T09:16:33;16.00;99.90
16515;DHT22;8370;52.556;7.970;2022-10-16T09:21:32;16.00;99.90
16515;DHT22;8370;52.556;7.970;2022-10-16T09:24:14;16.20;99.90
16515;DHT22;8370;52.556;7.970;2022-10-16T09:26:40;16.30;99.90
16515;DHT22;8370;52.556;7.970;2022-10-16T09:29:06;16.50;99.90
16515;DHT22;8370;52.556;7.970;2022-10-16T09:31:32;16.70;99.90
16515;DHT22;8370;52.556;7.970;2022-10-16T09:34:03;16.70;99.90
16515;DHT22;8370;52.556;7.970;2022-10-16T09:36:39;16.70;99.90
16515;DHT22;8370;52.556;7.970;2022-10-16T09:39:10;16.80;99.90
16515;DHT22;8370;52.556;7.970;2022-10-16T09:41:40;16.70;99.90
16515;DHT22;8370;52.556;7.970;2022-10-16T09:44:25;16.80;99.90
16515;DHT22;8370;52.556;7.970;2022-10-16T09:47:04;16.90;99.90
16515;DHT22;8370;52.556;7.970;2022-10-16T09:49:30;17.00;99.90
16515;DHT22;8370;52.556;7.970;2022-10-16T09:52:11;17.10;99.90
16515;DHT22;8370;52.556;7.970;2022-10-16T09:54:37;17.30;99.90
16515;DHT22;8370;52.556;7.970;2022-10-16T09:57:07;17.60;99.90
16515;DHT22;8370;52.556;7.970;2022-10-16T09:59:33;17.70;99.90
16515;DHT22;8370;52.556;7.970;2022-10-16T10:02:02;17.60;99.90
16515;DHT22;8370;52.556;7.970;2022-10-16T10:04:38;17.60;99.90
16515;DHT22;8370;52.556;7.970;2022-10-16T10:07:06;17.70;99.90
16515;DHT22;8370;52.556;7.970;2022-10-16T10:09:44;17.70;99.90
16515;DHT22;8370;52.556;7.970;2022-10-16T10:12:25;17.80;99.90
16515;DHT22;8370;52.556;7.970;2022-10-16T10:14:53;17.90;99.90
16515;DHT22;8370;52.556;7.970;2022-10-16T10:17:19;17.90;99.90
16515;DHT22;8370;52.556;7.970;2022-10-16T10:19:54;17.80;99.90
16515;DHT22;8370;52.556;7.970;2022-10-16T10:24:56;17.60;99.90
16515;DHT22;8370;52.556;7.970;2022-10-16T10:27:30;17.60;99.90
16515;DHT22;8370;52.556;7.970;2022-10-16T10:30:19;17.60;99.90
16515;DHT22;8370;52.556;7.970;2022-10-16T10:35:55;17.60;99.90
16515;DHT22;8370;52.556;7.970;2022-10-16T10:41:19;17.70;99.90
16515;DHT22;8370;52.556;7.970;2022-10-16T10:44:11;17.50;99.90
16515;DHT22;8370;52.556;7.970;2022-10-16T10:46:48;17.80;99.90
16515;DHT22;8370;52.556;7.970;2022-10-16T10:54:24;19.40;99.90
16515;DHT22;8370;52.556;7.970;2022-10-16T10:57:03;19.50;99.90
16515;DHT22;8370;52.556;7.970;2022-10-16T11:10:40;20.80;99.90
16515;DHT22;8370;52.556;7.970;2022-10-16T11:15:54;22.60;99.90
16515;DHT22;8370;52.556;7.970;2022-10-16T11:18:33;23.80;99.90
16515;DHT22;8370;52.556;7.970;2022-10-16T11:21:08;24.30;99.90
16515;DHT22;8370;52.556;7.970;2022-10-16T11:26:27;26.00;99.90
16515;DHT22;8370;52.556;7.970;2022-10-16T11:28:56;26.10;99.90
16515;DHT22;8370;52.556;7.970;2022-10-16T11:31:45;26.20;99.90
16515;DHT22;8370;52.556;7.970;2022-10-16T11:34:28;26.10;99.90
16515;DHT22;8370;52.556;7.970;2022-10-16T11:37:08;26.30;99.90
16515;DHT22;8370;52.556;7.970;2022-10-16T11:39:37;26.40;99.90
16515;DHT22;8370;52.556;7.970;2022-10-16T11:42:30;26.40;99.90
16515;DHT22;8370;52.556;7.970;2022-10-16T11:45:15;26.70;99.90
16515;DHT22;8370;52.556;7.970;2022-10-16T11:47:57;26.20;99.90
16515;DHT22;8370;52.556;7.970;2022-10-16T11:50:37;25.80;99.90
16515;DHT22;8370;52.556;7.970;2022-10-16T11:53:29;25.00;99.90
16515;DHT22;8370;52.556;7.970;2022-10-16T11:55:57;24.50;99.90
16515;DHT22;8370;52.556;7.970;2022-10-16T11:58:27;24.20;99.90
16515;DHT22;8370;52.556;7.970;2022-10-16T12:06:40;25.70;99.90
16515;DHT22;8370;52.556;7.970;2022-10-16T12:09:26;25.70;99.90
16515;DHT22;8370;52.556;7.970;2022-10-16T12:11:53;25.30;99.90
16515;DHT22;8370;52.556;7.970;2022-10-16T12:14:38;24.70;99.90
16515;DHT22;8370;52.556;7.970;2022-10-16T12:17:24;24.10;99.90
16515;DHT22;8370;52.556;7.970;2022-10-16T12:22:49;22.70;99.90
16515;DHT22;8370;52.556;7.970;2022-10-16T12:25:29;22.50;99.90
16515;DHT22;8370;52.556;7.970;2022-10-16T12:27:56;22.30;99.90
16515;DHT22;8370;52.556;7.970;2022-10-16T12:30:24;22.00;99.90
16515;DHT22;8370;52.556;7.970;2022-10-16T12:35:50;21.60;99.90
16515;DHT22;8370;52.556;7.970;2022-10-16T12:39:06;21.50;99.90
16515;DHT22;8370;52.556;7.970;2022-10-16T12:41:08;21.50;99.90
16515;DHT22;8370;52.556;7.970;2022-10-16T12:43:47;21.30;99.90
16515;DHT22;8370;52.556;7.970;2022-10-16T12:48:40;21.40;99.90
16515;DHT22;8370;52.556;7.970;2022-10-16T12:51:23;21.60;99.90
16515;DHT22;8370;52.556;7.970;2022-10-16T12:56:44;21.40;99.90
16515;DHT22;8370;52.556;7.970;2022-10-16T12:59:28;21.30;99.90
16515;DHT22;8370;52.556;7.970;2022-10-16T13:02:02;21.20;99.90
16515;DHT22;8370;52.556;7.970;2022-10-16T13:08:30;21.00;99.90
16515;DHT22;8370;52.556;7.970;2022-10-16T13:10:39;20.60;99.90
16515;DHT22;8370;52.556;7.970;2022-10-16T13:16:02;20.20;99.90
16515;DHT22;8370;52.556;7.970;2022-10-16T13:18:43;20.20;99.90
16515;DHT22;8370;52.556;7.970;2022-10-16T13:24:49;20.00;99.90
16515;DHT22;8370;52.556;7.970;2022-10-16T13:27:36;19.90;99.90
16515;DHT22;8370;52.556;7.970;2022-10-16T13:30:16;19.80;99.90
16515;DHT22;8370;52.556;7.970;2022-10-16T13:32:48;19.60;99.90
16515;DHT22;8370;52.556;7.970;2022-10-16T13:35:34;19.70;99.90
16515;DHT22;8370;52.556;7.970;2022-10-16T13:40:36;19.50;99.90
16515;DHT22;8370;52.556;7.970;2022-10-16T13:43:12;19.50;99.90
16515;DHT22;8370;52.556;7.970;2022-10-16T13:45:38;19.50;99.90
16515;DHT22;8370;52.556;7.970;2022-10-16T13:48:10;19.50;99.90
16515;DHT22;8370;52.556;7.970;2022-10-16T13:50:37;19.50;99.90
16515;DHT22;8370;52.556;7.970;2022-10-16T13:53:09;19.40;99.90
16515;DHT22;8370;52.556;7.970;2022-10-16T13:55:38;19.40;99.90
16515;DHT22;8370;52.556;7.970;2022-10-16T13:58:14;19.30;99.90
16515;DHT22;8370;52.556;7.970;2022-10-16T14:00:51;19.20;99.90
16515;DHT22;8370;52.556;7.970;2022-10-16T14:03:18;19.10;99.90
16515;DHT22;8370;52.556;7.970;2022-10-16T14:05:51;19.10;99.90
16515;DHT22;8370;52.556;7.970;2022-10-16T14:08:17;19.10;99.90
16515;DHT22;8370;52.556;7.970;2022-10-16T14:10:48;19.10;99.90
16515;DHT22;8370;52.556;7.970;2022-10-16T14:13:18;19.00;99.90
16515;DHT22;8370;52.556;7.970;2022-10-16T14:15:47;18.90;99.90
16515;DHT22;8370;52.556;7.970;2022-10-16T14:18:24;18.90;99.90
16515;DHT22;8370;52.556;7.970;2022-10-16T14:20:50;18.80;99.90
16515;DHT22;8370;52.556;7.970;2022-10-16T14:23:29;18.80;99.90
16515;DHT22;8370;52.556;7.970;2022-10-16T14:26:16;18.80;99.90
16515;DHT22;8370;52.556;7.970;2022-10-16T14:28:43;18.70;99.90
16515;DHT22;8370;52.556;7.970;2022-10-16T14:31:29;18.70;99.90
16515;DHT22;8370;52.556;7.970;2022-10-16T14:33:56;18.70;99.90
16515;DHT22;8370;52.556;7.970;2022-10-16T14:36:22;18.70;99.90
16515;DHT22;8370;52.556;7.970;2022-10-16T14:39:03;18.70;99.90
16515;DHT22;8370;52.556;7.970;2022-10-16T14:41:31;18.70;99.90
16515;DHT22;8370;52.556;7.970;2022-10-16T14:44:06;18.70;99.90
16515;DHT22;8370;52.556;7.970;2022-10-16T14:46:34;18.60;99.90
16515;DHT22;8370;52.556;7.970;2022-10-16T14:49:05;18.60;99.90
16515;DHT22;8370;52.556;7.970;2022-10-16T14:51:39;18.60;99.90
16515;DHT22;8370;52.556;7.970;2022-10-16T14:54:11;18.50;99.90
16515;DHT22;8370;52.556;7.970;2022-10-16T14:59:27;18.40;99.90
16515;DHT22;8370;52.556;7.970;2022-10-16T15:01:54;18.40;99.90
16515;DHT22;8370;52.556;7.970;2022-10-16T15:04:19;18.30;99.90
16515;DHT22;8370;52.556;7.970;2022-10-16T15:06:45;18.30;99.90
16515;DHT22;8370;52.556;7.970;2022-10-16T15:09:10;18.40;99.90
16515;DHT22;8370;52.556;7.970;2022-10-16T15:11:36;18.30;99.90
16515;DHT22;8370;52.556;7.970;2022-10-16T15:14:03;18.30;99.90
16515;DHT22;8370;52.556;7.970;2022-10-16T15:16:29;18.20;99.90
16515;DHT22;8370;52.556;7.970;2022-10-16T15:18:55;18.20;99.90
16515;DHT22;8370;52.556;7.970;2022-10-16T15:21:25;18.20;99.90
16515;DHT22;8370;52.556;7.970;2022-10-16T15:23:51;18.10;99.90
16515;DHT22;8370;52.556;7.970;2022-10-16T15:26:17;18.00;99.90
16515;DHT22;8370;52.556;7.970;2022-10-16T15:28:43;18.00;99.90
16515;DHT22;8370;52.556;7.970;2022-10-16T15:31:08;17.90;99.90
16515;DHT22;8370;52.556;7.970;2022-10-16T15:33:34;17.90;99.90
16515;DHT22;8370;52.556;7.970;2022-10-16T15:36:01;17.80;99.90
16515;DHT22;8370;52.556;7.970;2022-10-16T15:38:28;17.80;99.90
16515;DHT22;8370;52.556;7.970;2022-10-16T15:40:54;17.70;99.90
16515;DHT22;8370;52.556;7.970;2022-10-16T15:43:19;17.60;99.90
16515;DHT22;8370;52.556;7.970;2022-10-16T15:46:01;17.50;99.90
16515;DHT22;8370;52.556;7.970;2022-10-16T15:48:28;17.50;99.90
16515;DHT22;8370;52.556;7.970;2022-10-16T15:50:54;17.40;99.90
16515;DHT22;8370;52.556;7.970;2022-10-16T15:53:19;17.30;99.90
16515;DHT22;8370;52.556;7.970;2022-10-16T15:55:45;17.20;99.90
16515;DHT22;8370;52.556;7.970;2022-10-16T15:58:10;17.10;99.90
16515;DHT22;8370;52.556;7.970;2022-10-16T16:00:36;16.90;99.90
16515;DHT22;8370;52.556;7.970;2022-10-16T16:03:02;16.80;99.90
16515;DHT22;8370;52.556;7.970;2022-10-16T16:05:27;16.60;99.90
16515;DHT22;8370;52.556;7.970;2022-10-16T16:07:53;16.50;99.90
16515;DHT22;8370;52.556;7.970;2022-10-16T16:10:18;16.40;99.90
16515;DHT22;8370;52.556;7.970;2022-10-16T16:12:47;16.20;99.90
16515;DHT22;8370;52.556;7.970;2022-10-16T16:15:17;16.10;99.90
16515;DHT22;8370;52.556;7.970;2022-10-16T16:17:43;16.00;99.90
16515;DHT22;8370;52.556;7.970;2022-10-16T16:20:10;15.80;99.90
16515;DHT22;8370;52.556;7.970;2022-10-16T16:22:36;15.70;99.90
16515;DHT22;8370;52.556;7.970;2022-10-16T16:25:01;15.60;99.90
16515;DHT22;8370;52.556;7.970;2022-10-16T16:27:27;15.40;99.90
16515;DHT22;8370;52.556;7.970;2022-10-16T16:29:55;15.30;99.90
16515;DHT22;8370;52.556;7.970;2022-10-16T16:32:21;15.20;99.90
16515;DHT22;8370;52.556;7.970;2022-10-16T16:34:47;15.10;99.90
16515;DHT22;8370;52.556;7.970;2022-10-16T16:37:12;15.00;99.90
16515;DHT22;8370;52.556;7.970;2022-10-16T16:39:38;14.90;99.90
16515;DHT22;8370;52.556;7.970;2022-10-16T16:42:03;14.80;99.90
16515;DHT22;8370;52.556;7.970;2022-10-16T16:44:31;14.70;99.90
16515;DHT22;8370;52.556;7.970;2022-10-16T16:46:57;14.60;99.90
16515;DHT22;8370;52.556;7.970;2022-10-16T16:49:22;14.50;99.90
16515;DHT22;8370;52.556;7.970;2022-10-16T16:51:48;14.40;99.90
16515;DHT22;8370;52.556;7.970;2022-10-16T16:54:13;14.30;99.90
16515;DHT22;8370;52.556;7.970;2022-10-16T16:56:40;14.20;99.90
16515;DHT22;8370;52.556;7.970;2022-10-16T16:59:12;14.10;99.90
16515;DHT22;8370;52.556;7.970;2022-10-16T17:01:38;14.10;99.90
16515;DHT22;8370;52.556;7.970;2022-10-16T17:04:05;14.00;99.90
16515;DHT22;8370;52.556;7.970;2022-10-16T17:06:31;13.90;99.90
16515;DHT22;8370;52.556;7.970;2022-10-16T17:08:57;13.90;99.90
16515;DHT22;8370;52.556;7.970;2022-10-16T17:11:25;13.80;99.90
16515;DHT22;8370;52.556;7.970;2022-10-16T17:13:52;13.70;99.90
16515;DHT22;8370;52.556;7.970;2022-10-16T17:16:20;13.70;99.90